Time;durP1;ratioP1;P1;durP2;ratioP2;P2;SDS_P1;SDS_P2;PMS_P1;PMS_P2;Temp;Humidity;BMP_temperature;BMP_pressure;BME280_temperature;BME280_humidity;BME280_pressure;Samples;Min_cycle;Max_cycle;Signal;HPM_P1;HPM_P2
2022/08/20 00:01:55;;;;;;;19.13;11.65;;;22.60;99.90;;;-147.18;100.00;67318.16;5004913;28;20069;-79
2022/08/20 00:05:24;;;;;;;19.98;12.88;;;22.60;99.90;;;-147.18;100.00;67318.16;5002995;28;20065;-79
2022/08/20 00:08:50;;;;;;;20.30;13.63;;;22.60;99.90;;;-147.18;100.00;67318.16;4990474;28;20070;-78
2022/08/20 00:12:19;;;;;;;21.90;15.27;;;22.60;99.90;;;-147.18;100.00;67318.16;5006777;28;20176;-79
2022/08/20 00:15:46;;;;;;;22.63;14.52;;;22.50;99.90;;;-147.18;100.00;67318.16;4999080;28;20034;-79
2022/08/20 00:19:12;;;;;;;23.08;15.07;;;22.50;99.90;;;-147.18;100.00;67318.16;5001377;28;20148;-79
2022/08/20 00:22:39;;;;;;;22.52;14.43;;;22.50;99.90;;;-147.18;100.00;67318.16;5002736;28;20732;-79
2022/08/20 00:26:07;;;;;;;21.48;14.60;;;22.50;99.90;;;-147.18;100.00;67318.16;5001377;28;20045;-79
2022/08/20 00:29:33;;;;;;;22.30;14.00;;;22.50;99.90;;;-147.18;100.00;67318.16;4996291;28;20117;-78
2022/08/20 00:33:00;;;;;;;22.92;15.40;;;22.40;99.90;;;-147.18;100.00;67318.16;4999526;28;20069;-79
2022/08/20 00:36:27;;;;;;;23.25;15.95;;;22.40;99.90;;;-147.18;100.00;67318.16;5002962;28;20100;-79
2022/08/20 00:39:55;;;;;;;22.75;14.70;;;22.40;99.90;;;-147.18;100.00;67318.16;5006260;28;20120;-78
2022/08/20 00:43:25;;;;;;;22.98;14.88;;;22.40;99.90;;;-147.18;100.00;67318.16;4998848;28;20112;-78
2022/08/20 00:46:52;;;;;;;21.30;14.73;;;22.30;99.90;;;-147.18;100.00;67318.16;5004902;28;20413;-79
2022/08/20 00:50:21;;;;;;;21.27;14.77;;;22.40;99.90;;;-147.18;100.00;67318.16;5002151;28;20145;-79
2022/08/20 00:53:51;;;;;;;22.42;15.30;;;22.30;99.90;;;-147.18;100.00;67318.16;5001961;28;20045;-78
2022/08/20 00:57:22;;;;;;;24.33;16.35;;;22.40;99.90;;;-147.18;100.00;67318.16;5002898;28;20422;-79
2022/08/20 01:00:49;;;;;;;28.98;16.10;;;22.30;99.90;;;-147.18;100.00;67318.16;5005659;28;20080;-79
2022/08/20 01:04:17;;;;;;;23.48;15.95;;;22.30;99.90;;;-147.18;100.00;67318.16;5003903;28;20034;-79
2022/08/20 01:07:43;;;;;;;23.50;16.08;;;22.20;99.90;;;-147.18;100.00;67318.16;4999011;28;20078;-79
2022/08/20 01:11:15;;;;;;;23.15;15.52;;;22.30;99.90;;;-147.18;100.00;67318.16;5004542;28;20038;-78
2022/08/20 01:13:48;;;;;;;24.17;16.23;;;22.30;99.90;;;-147.18;100.00;67318.16;4998832;28;20042;-79
2022/08/20 01:16:47;;;;;;;28.63;16.65;;;22.20;99.90;;;-147.18;100.00;67318.16;5001100;28;20121;-78
2022/08/20 01:20:10;;;;;;;27.23;16.83;;;22.20;99.90;;;-147.18;100.00;67318.16;5002790;28;20045;-79
2022/08/20 01:23:44;;;;;;;25.50;16.13;;;22.20;99.90;;;-147.18;100.00;67318.16;5013280;28;20088;-78
2022/08/20 01:27:14;;;;;;;23.92;16.58;;;22.20;99.90;;;-147.18;100.00;67318.16;5008267;28;20038;-79
2022/08/20 01:30:31;;;;;;;25.27;16.88;;;22.20;99.90;;;-147.18;100.00;67318.16;5000275;28;20523;-79
2022/08/20 01:33:37;;;;;;;23.77;16.98;;;22.20;99.90;;;-147.18;100.00;67318.16;5001707;28;20124;-79
2022/08/20 01:37:02;;;;;;;23.70;16.38;;;22.10;99.90;;;-147.18;100.00;67318.16;5010369;28;20117;-78
2022/08/20 01:40:07;;;;;;;26.55;16.85;;;22.10;99.90;;;-147.18;100.00;67318.16;5002456;28;20160;-79
2022/08/20 01:43:37;;;;;;;26.05;16.98;;;22.10;99.90;;;-147.18;100.00;67318.16;5005405;28;20065;-79
2022/08/20 01:46:39;;;;;;;27.08;18.40;;;22.10;99.90;;;-147.18;100.00;67318.16;5007699;28;20137;-79
2022/08/20 01:50:02;;;;;;;25.27;16.85;;;22.10;99.90;;;-147.18;100.00;67318.16;5013757;28;20042;-78
2022/08/20 01:53:32;;;;;;;26.77;18.25;;;22.10;99.90;;;-147.18;100.00;67318.16;5002832;28;20571;-79
2022/08/20 01:56:51;;;;;;;27.88;18.23;;;22.10;99.90;;;-147.18;100.00;67318.16;5001475;28;20419;-79
2022/08/20 01:59:56;;;;;;;26.45;17.15;;;22.10;99.90;;;-147.18;100.00;67318.16;4999191;28;20126;-79
2022/08/20 02:02:55;;;;;;;26.38;17.52;;;22.10;99.90;;;-147.18;100.00;67318.16;5004775;28;20054;-79
2022/08/20 02:05:27;;;;;;;26.45;18.45;;;22.10;99.90;;;-147.18;100.00;67318.16;5011885;28;20040;-79
2022/08/20 02:08:01;;;;;;;29.90;18.95;;;22.10;99.90;;;-147.18;100.00;67318.16;4997363;28;20154;-79
2022/08/20 02:10:36;;;;;;;26.73;17.80;;;22.10;99.90;;;-147.18;100.00;67318.16;4997933;28;20042;-79
2022/08/20 02:13:16;;;;;;;24.58;16.88;;;22.00;99.90;;;-147.18;100.00;67318.16;5003039;28;20043;-79
2022/08/20 02:15:50;;;;;;;28.67;18.98;;;22.00;99.90;;;-147.18;100.00;67318.16;5004679;28;20046;-79
2022/08/20 02:18:21;;;;;;;23.98;16.70;;;22.00;99.90;;;-147.18;100.00;67318.16;5006510;28;20046;-79
2022/08/20 02:20:54;;;;;;;25.67;17.33;;;22.00;99.90;;;-147.18;100.00;67318.16;5005074;28;20101;-79
2022/08/20 02:23:28;;;;;;;25.67;16.85;;;22.00;99.90;;;-147.18;100.00;67318.16;5004885;28;20133;-79
2022/08/20 02:26:06;;;;;;;24.48;15.63;;;22.00;99.90;;;-147.18;100.00;67318.16;5009384;28;20517;-79
2022/08/20 02:28:56;;;;;;;22.05;15.20;;;22.00;99.90;;;-147.18;100.00;67318.16;5001339;28;20034;-79
2022/08/20 02:31:46;;;;;;;20.75;12.98;;;21.90;99.90;;;-147.18;100.00;67318.16;4998289;28;20038;-79
2022/08/20 02:34:41;;;;;;;19.17;12.33;;;22.00;99.90;;;-147.18;100.00;67318.16;5005092;28;20052;-79
2022/08/20 02:37:27;;;;;;;19.90;12.57;;;21.90;99.90;;;-147.18;100.00;67318.16;5001591;28;21002;-79
2022/08/20 02:40:18;;;;;;;18.83;12.25;;;21.90;99.90;;;-147.18;100.00;67318.16;5004368;28;20120;-79
2022/08/20 02:43:31;;;;;;;18.15;12.57;;;21.90;99.90;;;-147.18;100.00;67318.16;5000512;28;20562;-79
2022/08/20 02:46:10;;;;;;;17.92;11.80;;;21.90;99.90;;;-147.18;100.00;67318.16;4999394;28;20034;-79
2022/08/20 02:48:44;;;;;;;17.42;11.45;;;21.80;99.90;;;-147.18;100.00;67318.16;5008852;28;20073;-79
2022/08/20 02:51:19;;;;;;;19.33;12.05;;;21.80;99.90;;;-147.18;100.00;67318.16;5002842;28;20069;-78
2022/08/20 02:54:02;;;;;;;16.70;11.65;;;21.80;99.90;;;-147.18;100.00;67318.16;4997994;28;20422;-79
2022/08/20 02:56:43;;;;;;;18.05;12.07;;;21.80;99.90;;;-147.18;100.00;67318.16;5001552;28;20113;-79
2022/08/20 02:59:24;;;;;;;19.25;11.65;;;21.80;99.90;;;-147.18;100.00;67318.16;5006220;28;20050;-78
2022/08/20 03:02:01;;;;;;;20.98;12.40;;;21.80;99.90;;;-147.18;100.00;67318.16;4998785;28;20117;-79
2022/08/20 03:04:44;;;;;;;18.70;12.80;;;21.80;99.90;;;-147.18;100.00;67318.16;5001069;28;20048;-78
2022/08/20 03:07:25;;;;;;;19.65;12.93;;;21.70;99.90;;;-147.18;100.00;67318.16;5004918;28;20057;-79
2022/08/20 03:09:54;;;;;;;;;;;21.70;99.90;;;-147.18;100.00;67318.16;5004706;28;20513;-78
2022/08/20 03:12:28;;;;;;;20.58;13.40;;;21.70;99.90;;;-147.18;100.00;67318.16;5003455;28;20024;-78
2022/08/20 03:15:42;;;;;;;22.75;13.27;;;21.70;99.90;;;-147.18;100.00;67318.16;4993370;28;20117;-78
2022/08/20 03:18:29;;;;;;;21.38;12.65;;;21.70;99.90;;;-147.18;100.00;67318.16;5001608;28;20038;-79
2022/08/20 03:21:10;;;;;;;23.10;14.48;;;21.70;99.90;;;-147.18;100.00;67318.16;5006670;28;20109;-79
2022/08/20 03:23:54;;;;;;;;;;;21.60;99.90;;;-147.18;100.00;67318.16;5025553;28;20033;-79
2022/08/20 03:26:38;;;;;;;22.88;14.00;;;21.60;99.90;;;-147.18;100.00;67318.16;5004369;28;20008;-79
2022/08/20 03:29:14;;;;;;;23.58;14.65;;;21.60;99.90;;;-147.18;100.00;67318.16;5003767;28;20449;-78
2022/08/20 03:31:58;;;;;;;21.40;13.80;;;21.60;99.90;;;-147.18;100.00;67318.16;5003421;28;20042;-79
2022/08/20 03:34:59;;;;;;;20.35;13.32;;;21.60;99.90;;;-147.18;100.00;67318.16;4999128;28;20042;-79
2022/08/20 03:37:49;;;;;;;23.48;14.07;;;21.60;99.90;;;-147.18;100.00;67318.16;5007018;28;20495;-79
2022/08/20 03:40:38;;;;;;;20.40;13.87;;;21.60;99.90;;;-147.18;100.00;67318.16;5001664;28;20048;-79
2022/08/20 03:43:22;;;;;;;21.33;13.80;;;21.60;99.90;;;-147.18;100.00;67318.16;5000042;28;20113;-79
2022/08/20 03:45:59;;;;;;;22.42;14.35;;;21.60;99.90;;;-147.18;100.00;67318.16;5005746;28;20034;-78
2022/08/20 03:48:43;;;;;;;23.02;14.02;;;21.60;99.90;;;-147.18;100.00;67318.16;4996633;28;20398;-78
2022/08/20 03:51:16;;;;;;;21.10;14.20;;;21.50;99.90;;;-147.18;100.00;67318.16;5002758;28;20117;-78
2022/08/20 03:53:54;;;;;;;22.23;13.77;;;21.50;99.90;;;-147.18;100.00;67318.16;4999763;28;20070;-79
2022/08/20 03:56:26;;;;;;;21.17;13.57;;;21.50;99.90;;;-147.18;100.00;67318.16;4997354;28;20037;-79
2022/08/20 03:59:11;;;;;;;22.00;14.40;;;21.60;99.90;;;-147.18;100.00;67318.16;4992214;28;20513;-79
2022/08/20 04:02:12;;;;;;;21.67;14.43;;;21.60;99.90;;;-147.18;100.00;67318.16;4995397;28;20073;-79
2022/08/20 04:04:58;;;;;;;24.50;14.27;;;21.50;99.90;;;-147.18;100.00;67318.16;4999454;28;20030;-79
2022/08/20 04:08:25;;;;;;;21.75;14.13;;;21.60;99.90;;;-147.18;100.00;67318.16;4997081;28;20042;-78
2022/08/20 04:11:04;;;;;;;19.38;12.73;;;21.50;99.90;;;-147.18;100.00;67318.16;5004763;28;20450;-79
2022/08/20 04:14:01;;;;;;;21.75;13.85;;;21.50;99.90;;;-147.18;100.00;67318.16;4999038;28;20080;-81
2022/08/20 04:17:20;;;;;;;19.65;13.90;;;21.50;99.90;;;-147.18;100.00;67318.16;4993584;28;20121;-82
2022/08/20 04:20:27;;;;;;;20.27;13.57;;;21.50;99.90;;;-147.18;100.00;67318.16;5006449;28;20121;-82
2022/08/20 04:23:35;;;;;;;20.23;13.63;;;21.50;99.90;;;-147.18;100.00;67318.16;5000481;28;20046;-83
2022/08/20 04:26:25;;;;;;;23.15;14.57;;;21.50;99.90;;;-147.18;100.00;67318.16;4999551;28;20525;-89
2022/08/20 04:29:43;;;;;;;23.70;14.50;;;21.50;99.90;;;-147.18;100.00;67318.16;5005655;28;20500;-89
2022/08/20 04:32:35;;;;;;;19.42;13.00;;;21.50;99.90;;;-147.18;100.00;67318.16;4992340;28;20041;-86
2022/08/20 04:36:04;;;;;;;22.42;14.70;;;21.40;99.90;;;-147.18;100.00;67318.16;5006180;28;20156;-88
2022/08/20 04:39:22;;;;;;;20.73;13.30;;;21.40;99.90;;;-147.18;100.00;67318.16;5001960;28;20096;-88
2022/08/20 04:42:23;;;;;;;23.17;14.65;;;21.40;99.90;;;-147.18;100.00;67318.16;5021771;28;20049;-87
2022/08/20 04:44:54;;;;;;;26.95;15.98;;;21.40;99.90;;;-147.18;100.00;67318.16;5004097;28;20073;-88
2022/08/20 04:47:34;;;;;;;27.98;15.18;;;21.40;99.90;;;-147.18;100.00;67318.16;5007329;28;20097;-87
2022/08/20 04:50:27;;;;;;;27.97;17.47;;;21.40;99.90;;;-147.18;100.00;67318.16;5006237;28;20064;-88
2022/08/20 04:53:12;;;;;;;27.52;17.00;;;21.40;99.90;;;-147.18;100.00;67318.16;4996794;28;20041;-87
2022/08/20 04:55:47;;;;;;;25.52;16.80;;;21.40;99.90;;;-147.18;100.00;67318.16;5000833;28;20076;-88
2022/08/20 04:58:26;;;;;;;25.92;16.50;;;21.40;99.90;;;-147.18;100.00;67318.16;5014784;28;20046;-86
2022/08/20 05:00:59;;;;;;;27.58;17.17;;;21.50;99.90;;;-147.18;100.00;67318.16;5002584;28;20061;-87
2022/08/20 05:03:31;;;;;;;27.55;17.75;;;21.50;99.90;;;-147.18;100.00;67318.16;5003886;28;20037;-87
2022/08/20 05:06:04;;;;;;;25.77;17.48;;;21.50;99.90;;;-147.18;100.00;67318.16;5001817;28;20047;-83
2022/08/20 05:08:38;;;;;;;28.65;17.27;;;21.50;99.90;;;-147.18;100.00;67318.16;5008324;28;20038;-86
2022/08/20 05:11:08;;;;;;;30.15;18.10;;;21.50;99.90;;;-147.18;100.00;67318.16;5006563;28;20077;-90
2022/08/20 05:13:39;;;;;;;31.20;18.23;;;21.50;99.90;;;-147.18;100.00;67318.16;5010020;28;20045;-89
2022/08/20 05:16:08;;;;;;;25.60;17.30;;;21.50;99.90;;;-147.18;100.00;67318.16;5008206;28;20129;-89
2022/08/20 05:18:37;;;;;;;26.15;17.90;;;21.50;99.90;;;-147.18;100.00;67318.16;5005054;28;20145;-92
2022/08/20 05:21:08;;;;;;;29.50;18.13;;;21.60;99.90;;;-147.18;100.00;67318.16;5004156;28;20532;-93
2022/08/20 05:23:41;;;;;;;28.83;17.80;;;21.60;99.90;;;-147.18;100.00;67318.16;5005640;28;20085;-92
2022/08/20 05:26:10;;;;;;;32.63;19.88;;;21.60;99.90;;;;;;5009802;28;20042;-94
2022/08/20 05:28:40;;;;;;;32.90;20.35;;;21.60;99.90;;;-147.18;100.00;67318.16;5001558;28;20089;-94
2022/08/20 05:31:09;;;;;;;29.60;18.85;;;21.60;99.90;;;-147.18;100.00;67318.16;5013047;28;20049;-94
2022/08/20 05:33:39;;;;;;;24.25;17.58;;;21.60;99.90;;;-147.18;100.00;67318.16;5007346;28;20046;-95
2022/08/20 05:36:08;;;;;;;27.42;15.88;;;21.60;99.90;;;-147.18;100.00;67318.16;4998990;28;20046;-95
2022/08/20 05:54:41;;;;;;;19.33;12.48;;;21.60;99.90;;;-147.18;100.00;67318.16;5028838;28;20476;-91
2022/08/20 05:57:09;;;;;;;16.23;11.70;;;21.60;99.90;;;-147.18;100.00;67318.16;5015633;28;20038;-92
2022/08/20 05:59:38;;;;;;;15.73;11.55;;;21.60;99.90;;;-147.18;100.00;67318.16;5023807;28;20145;-90
2022/08/20 06:04:23;;;;;;;14.43;10.65;;;21.60;99.90;;;-147.18;100.00;67318.16;5011446;28;20046;-92
2022/08/20 06:04:52;;;;;;;14.65;9.80;;;21.60;99.90;;;-147.18;100.00;67318.16;5020584;28;20045;-92
2022/08/20 06:07:19;;;;;;;13.43;9.95;;;21.60;99.90;;;-147.18;100.00;67318.16;5021375;28;20037;-91
2022/08/20 06:09:48;;;;;;;15.75;10.82;;;21.60;99.90;;;-147.18;100.00;67318.16;5022924;28;20053;-93
2022/08/20 06:12:16;;;;;;;14.88;10.40;;;21.60;99.90;;;-147.18;100.00;67318.16;5032703;28;20044;-91
2022/08/20 06:14:47;;;;;;;15.60;11.15;;;21.60;99.90;;;-147.18;100.00;67318.16;5026270;28;20221;-94
2022/08/20 06:17:18;;;;;;;16.55;9.63;;;21.70;99.90;;;-147.18;100.00;67318.16;5033734;28;20041;-91
2022/08/20 06:19:46;;;;;;;;;;;21.70;99.90;;;-147.18;100.00;67318.16;5029903;28;20133;-92
2022/08/20 06:22:15;;;;;;;14.73;10.52;;;21.70;99.90;;;-147.18;100.00;67318.16;5025189;28;19921;-91
2022/08/20 06:24:42;;;;;;;13.20;9.98;;;21.70;99.90;;;-147.18;100.00;67318.16;5025758;28;20041;-92
2022/08/20 06:27:15;;;;;;;15.65;11.02;;;21.70;99.90;;;-147.18;100.00;67318.16;5014888;28;20042;-92
2022/08/20 06:29:43;;;;;;;17.63;10.77;;;21.70;99.90;;;-147.18;100.00;67318.16;5023616;28;20056;-90
2022/08/20 06:32:16;;;;;;;17.08;11.00;;;21.70;99.90;;;-147.18;100.00;67318.16;5030343;28;20057;-92
2022/08/20 06:34:44;;;;;;;13.07;10.23;;;21.70;99.90;;;-147.18;100.00;67318.16;5032853;28;20498;-93
2022/08/20 06:37:16;;;;;;;16.92;10.57;;;21.70;99.90;;;-147.18;100.00;67318.16;5020398;28;20041;-92
2022/08/20 06:39:49;;;;;;;21.75;10.77;;;21.70;99.90;;;-147.18;100.00;67318.16;5026319;28;20073;-94
2022/08/20 06:42:21;;;;;;;17.40;11.00;;;21.70;99.90;;;-147.18;100.00;67318.16;5027913;28;20044;-94
2022/08/20 06:44:49;;;;;;;17.88;12.40;;;21.70;99.90;;;-147.18;100.00;67318.16;5025344;28;20042;-89
2022/08/20 06:47:19;;;;;;;18.33;11.70;;;21.70;99.90;;;-147.18;100.00;67318.16;5019459;28;20673;-90
2022/08/20 06:49:47;;;;;;;16.25;10.52;;;21.70;99.90;;;-147.18;100.00;67318.16;5045825;23;20041;-86
2022/08/20 06:52:16;;;;;;;19.05;10.55;;;21.70;99.90;;;-147.18;100.00;67318.16;5030058;28;20053;-86
2022/08/20 06:54:43;;;;;;;14.75;10.05;;;21.70;99.90;;;-147.18;100.00;67318.16;5017248;28;20046;-87
2022/08/20 06:57:11;;;;;;;17.17;9.65;;;21.70;99.90;;;-147.18;100.00;67318.16;5019036;28;20096;-87
2022/08/20 07:00:13;;;;;;;16.35;11.30;;;21.70;99.90;;;-147.18;100.00;67318.16;5030726;28;20069;-89
2022/08/20 07:02:41;;;;;;;16.15;11.82;;;21.70;99.90;;;-147.18;100.00;67318.16;5029532;28;20060;-90
2022/08/20 07:05:10;;;;;;;21.83;13.10;;;21.70;99.90;;;-147.18;100.00;67318.16;5029996;28;20095;-87
2022/08/20 07:07:37;;;;;;;20.50;14.05;;;21.70;99.90;;;-147.18;100.00;67318.16;5029919;28;20563;-85
2022/08/20 07:10:09;;;;;;;22.73;15.10;;;21.80;99.90;;;-147.18;100.00;67318.16;5029347;28;20502;-86
2022/08/20 07:12:36;;;;;;;22.75;16.08;;;21.80;99.90;;;-147.18;100.00;67318.16;5019462;28;20140;-86
2022/08/20 07:15:08;;;;;;;21.48;15.57;;;21.80;99.90;;;-147.18;100.00;67318.16;5027760;28;20417;-86
2022/08/20 07:17:36;;;;;;;20.95;14.93;;;21.80;99.90;;;-147.18;100.00;67318.16;5012518;28;20038;-86
2022/08/20 07:20:05;;;;;;;21.02;16.23;;;21.80;99.90;;;-147.18;100.00;67318.16;5029311;28;20076;-87
2022/08/20 07:22:34;;;;;;;23.33;16.40;;;21.80;99.90;;;-147.18;100.00;67318.16;5029073;28;20056;-87
2022/08/20 07:25:05;;;;;;;23.08;16.10;;;21.80;99.90;;;-147.18;100.00;67318.16;5027142;28;20132;-86
2022/08/20 07:27:32;;;;;;;23.55;17.15;;;21.80;99.90;;;-147.18;100.00;67318.16;5023036;28;20084;-85
2022/08/20 07:32:47;;;;;;;23.70;16.90;;;21.90;99.90;;;-147.18;100.00;67318.16;5009685;28;20092;-87
2022/08/20 07:35:17;;;;;;;26.73;19.38;;;21.90;99.90;;;-147.18;100.00;67318.16;5027329;28;20139;-87
2022/08/20 07:37:48;;;;;;;32.45;18.98;;;21.90;99.90;;;-147.18;100.00;67318.16;5037075;28;20108;-87
2022/08/20 07:40:19;;;;;;;28.25;19.08;;;21.90;99.90;;;-147.18;100.00;67318.16;5014834;28;20064;-86
2022/08/20 07:42:49;;;;;;;27.65;20.02;;;21.90;99.90;;;-147.18;100.00;67318.16;5035712;28;20136;-87
2022/08/20 07:48:48;;;;;;;31.42;21.63;;;22.00;99.90;;;-147.18;100.00;67318.16;5043096;28;20415;-87
2022/08/20 07:51:24;;;;;;;30.17;22.35;;;22.00;99.90;;;-147.18;100.00;67318.16;5051970;23;20041;-88
2022/08/20 07:53:52;;;;;;;31.45;22.33;;;22.10;99.90;;;-147.18;100.00;67318.16;5051544;28;20045;-88
2022/08/20 07:56:23;;;;;;;34.33;23.40;;;22.20;99.90;;;-147.18;100.00;67318.16;5051234;28;20056;-88
2022/08/20 07:58:54;;;;;;;32.90;23.17;;;22.20;99.90;;;-147.18;100.00;67318.16;5046464;28;20114;-88
2022/08/20 08:01:24;;;;;;;37.22;23.30;;;22.20;99.90;;;-147.18;100.00;67318.16;5051290;28;20043;-88
2022/08/20 08:03:53;;;;;;;34.20;23.48;;;22.30;99.90;;;-147.18;100.00;67318.16;5051793;28;20036;-87
2022/08/20 08:06:23;;;;;;;34.90;23.85;;;22.30;99.90;;;-147.18;100.00;67318.16;5049112;28;20476;-86
2022/08/20 08:08:51;;;;;;;38.38;25.88;;;22.30;99.90;;;-147.18;100.00;67318.16;5031729;28;20072;-91
2022/08/20 08:11:18;;;;;;;41.00;27.10;;;22.30;99.90;;;-147.18;100.00;67318.16;5050120;28;20045;-89
2022/08/20 08:13:47;;;;;;;40.00;26.38;;;22.30;99.90;;;-147.18;100.00;67318.16;5050361;28;20040;-92
2022/08/20 08:16:15;;;;;;;44.95;29.70;;;22.30;99.90;;;-147.18;100.00;67318.16;5048383;28;20082;-89
2022/08/20 08:18:48;;;;;;;41.03;29.05;;;22.30;99.90;;;-147.18;100.00;67318.16;5044395;28;20045;-92
2022/08/20 08:21:18;;;;;;;44.35;31.83;;;22.30;99.90;;;-147.18;100.00;67318.16;5042661;28;20566;-92
2022/08/20 08:23:45;;;;;;;45.47;32.15;;;22.40;99.90;;;-147.18;100.00;67318.16;5041357;28;20038;-93
2022/08/20 08:26:14;;;;;;;53.42;33.15;;;22.40;99.90;;;-147.18;100.00;67318.16;5039768;28;20076;-89
2022/08/20 08:28:43;;;;;;;58.83;37.28;;;22.50;99.90;;;-147.18;100.00;67318.16;5034511;28;20068;-92
2022/08/20 08:31:11;;;;;;;49.67;33.20;;;22.50;99.90;;;-147.18;100.00;67318.16;5051786;28;20047;-91
2022/08/20 08:33:39;;;;;;;49.05;34.38;;;22.60;99.90;;;-147.18;100.00;67318.16;5036237;28;20412;-91
2022/08/20 08:36:11;;;;;;;56.97;36.22;;;22.60;99.90;;;-147.18;100.00;67318.16;5039527;28;20112;-94
2022/08/20 08:38:42;;;;;;;52.45;36.35;;;22.50;99.90;;;-147.18;100.00;67318.16;5038119;28;20041;-87
2022/08/20 08:41:19;;;;;;;50.65;35.33;;;22.60;99.90;;;-147.18;100.00;67318.16;5034993;28;20040;-91
2022/08/20 08:43:51;;;;;;;50.15;32.45;;;22.60;99.90;;;-147.18;100.00;67318.16;5037767;28;20072;-87
2022/08/20 08:46:24;;;;;;;45.22;30.67;;;22.60;99.90;;;-147.18;100.00;67318.16;5039600;28;20447;-88
2022/08/20 08:48:55;;;;;;;47.58;32.50;;;22.70;99.90;;;-147.18;100.00;67318.16;5047712;28;20408;-94
2022/08/20 08:51:30;;;;;;;46.05;32.35;;;22.70;99.90;;;-147.18;100.00;67318.16;5043627;28;20042;-94
2022/08/20 08:54:00;;;;;;;62.33;41.50;;;22.70;99.90;;;-147.18;100.00;67318.16;5032970;28;20045;-93
2022/08/20 08:56:30;;;;;;;58.65;41.83;;;22.70;99.90;;;-147.18;100.00;67318.16;5036167;28;20037;-87
2022/08/20 08:59:03;;;;;;;63.73;39.60;;;22.60;99.90;;;-147.18;100.00;67318.16;5040584;28;20501;-85
2022/08/20 09:01:35;;;;;;;53.28;35.50;;;22.60;99.90;;;-147.18;100.00;67318.16;5031205;28;20064;-87
2022/08/20 09:04:04;;;;;;;50.95;34.45;;;22.60;99.90;;;-147.18;100.00;67318.16;5039264;28;20051;-91
2022/08/20 09:06:32;;;;;;;48.15;33.90;;;22.60;99.90;;;-147.18;100.00;67318.16;5039040;28;20038;-83
2022/08/20 09:09:05;;;;;;;50.38;34.00;;;22.60;99.90;;;-147.18;100.00;67318.16;5041739;28;20568;-87
2022/08/20 09:11:47;;;;;;;49.45;34.45;;;22.60;99.90;;;-147.18;100.00;67318.16;5051803;28;20041;-89
2022/08/20 09:14:14;;;;;;;55.58;37.38;;;22.60;99.90;;;-147.18;100.00;67318.16;5033971;28;20508;-87
2022/08/20 09:16:41;;;;;;;71.90;44.33;;;22.60;99.90;;;-147.18;100.00;67318.16;5052699;28;20041;-86
2022/08/20 09:19:09;;;;;;;68.10;44.38;;;22.60;99.90;;;-147.18;100.00;67318.16;5055174;28;20106;-83
2022/08/20 09:21:36;;;;;;;64.13;40.75;;;22.60;99.90;;;-147.18;100.00;67318.16;5044171;28;20087;-92
2022/08/20 09:24:05;;;;;;;63.30;41.78;;;22.60;99.90;;;-147.18;100.00;67318.16;5054633;28;20674;-90
2022/08/20 09:26:32;;;;;;;60.65;40.80;;;22.60;99.90;;;-147.18;100.00;67318.16;5047593;28;20049;-96
2022/08/20 09:28:59;;;;;;;69.55;40.65;;;22.60;99.90;;;-147.18;100.00;67318.16;5054175;28;20041;-93
2022/08/20 09:31:27;;;;;;;58.10;38.40;;;22.70;99.90;;;-147.18;100.00;67318.16;5050127;28;20124;-94
2022/08/20 09:33:55;;;;;;;53.72;35.92;;;22.70;99.90;;;-147.18;100.00;67318.16;5050515;28;20076;-93
2022/08/20 09:36:22;;;;;;;47.22;33.88;;;22.70;99.90;;;-147.18;100.00;67318.16;5044541;28;20059;-92
2022/08/20 09:38:49;;;;;;;55.22;36.20;;;22.80;99.90;;;-147.18;100.00;67318.16;5044852;28;20045;-92
2022/08/20 09:41:18;;;;;;;51.63;36.33;;;22.80;99.90;;;-147.18;100.00;67318.16;5036061;28;20039;-93
2022/08/20 09:43:45;;;;;;;51.95;36.08;;;22.80;99.90;;;-147.18;100.00;67318.16;5046058;28;20129;-86
2022/08/20 09:46:12;;;;;;;55.03;35.75;;;22.80;99.90;;;-147.18;100.00;67318.16;5051717;28;20044;-88
2022/08/20 09:48:40;;;;;;;55.25;36.75;;;22.80;99.90;;;-147.18;100.00;67318.16;5059901;28;20130;-89
2022/08/20 09:51:07;;;;;;;49.10;35.92;;;22.80;99.90;;;-147.18;100.00;67318.16;5046757;28;20041;-87
2022/08/20 09:53:35;;;;;;;54.53;37.13;;;22.80;99.90;;;-147.18;100.00;67318.16;5039792;28;20116;-81
2022/08/20 09:56:03;;;;;;;50.17;36.88;;;22.80;99.90;;;-147.18;100.00;67318.16;5034672;28;20049;-80
2022/08/20 09:58:37;;;;;;;52.13;33.88;;;22.90;99.90;;;-147.18;100.00;67318.16;5045371;28;20072;-85
2022/08/20 10:01:09;;;;;;;45.83;32.47;;;22.90;99.90;;;-147.18;100.00;67318.16;5055845;28;20174;-84
2022/08/20 10:03:37;;;;;;;45.92;31.35;;;22.90;99.90;;;-147.18;100.00;67318.16;5049798;28;20037;-83
2022/08/20 10:06:04;;;;;;;46.00;31.27;;;22.90;99.90;;;-147.18;100.00;67318.16;5035654;28;20033;-83
2022/08/20 10:08:31;;;;;;;46.58;30.33;;;22.90;99.90;;;-147.18;100.00;67318.16;5043122;28;20152;-83
2022/08/20 10:10:59;;;;;;;46.78;31.92;;;23.00;99.90;;;-147.18;100.00;67318.16;5044823;28;20064;-83
2022/08/20 10:13:26;;;;;;;42.75;30.35;;;23.00;99.90;;;-147.18;100.00;67318.16;5039908;28;20045;-83
2022/08/20 10:15:54;;;;;;;48.10;31.63;;;23.00;99.90;;;-147.18;100.00;67318.16;5045673;28;20408;-83
2022/08/20 10:18:22;;;;;;;41.47;29.45;;;23.00;99.90;;;-147.18;100.00;67318.16;5039362;28;20029;-83
2022/08/20 10:20:49;;;;;;;45.65;29.80;;;23.00;99.90;;;-147.18;100.00;67318.16;5041337;28;20055;-83
2022/08/20 10:23:16;;;;;;;47.30;28.45;;;23.00;99.90;;;-147.18;100.00;67318.16;5046730;28;20041;-83
2022/08/20 10:25:43;;;;;;;35.35;26.20;;;23.10;99.90;;;-147.18;100.00;67318.16;5033739;28;20045;-83
2022/08/20 10:28:11;;;;;;;36.80;25.50;;;23.00;99.90;;;-147.18;100.00;67318.16;5052338;28;20052;-83
2022/08/20 10:30:38;;;;;;;37.38;24.67;;;23.10;99.90;;;-147.18;100.00;67318.16;5056088;28;20071;-83
2022/08/20 10:33:07;;;;;;;37.08;24.88;;;23.20;99.90;;;-147.18;100.00;67318.16;5034691;28;20140;-81
2022/08/20 10:35:34;;;;;;;32.97;22.45;;;23.30;99.90;;;-147.18;100.00;67318.16;5045441;28;20070;-84
2022/08/20 10:38:01;;;;;;;32.88;23.15;;;23.30;99.90;;;-147.18;100.00;67318.16;5045683;28;20080;-83
2022/08/20 10:40:28;;;;;;;33.28;22.88;;;23.30;99.90;;;-147.18;100.00;67318.16;5045220;28;20536;-84
2022/08/20 10:42:56;;;;;;;32.00;22.52;;;23.40;99.90;;;-147.18;100.00;67318.16;5045200;28;20051;-82
2022/08/20 10:45:24;;;;;;;35.85;22.73;;;23.40;99.90;;;-147.18;100.00;67318.16;5037182;28;20067;-82
2022/08/20 10:47:51;;;;;;;36.67;22.35;;;23.40;99.90;;;-147.18;100.00;67318.16;5032886;28;20049;-85
2022/08/20 10:50:20;;;;;;;33.92;22.20;;;23.40;99.90;;;-147.18;100.00;67318.16;5046027;28;20064;-86
2022/08/20 10:52:47;;;;;;;31.38;21.98;;;23.50;99.90;;;-147.18;100.00;67318.16;5043752;28;20038;-84
2022/08/20 10:55:15;;;;;;;31.50;22.10;;;23.40;99.90;;;-147.18;100.00;67318.16;5049754;28;20053;-85
2022/08/20 10:57:44;;;;;;;32.40;21.65;;;23.40;99.90;;;-147.18;100.00;67318.16;5041331;28;20037;-84
2022/08/20 11:00:13;;;;;;;32.60;22.05;;;23.50;99.90;;;-147.18;100.00;67318.16;5047440;28;20500;-85
2022/08/20 11:02:41;;;;;;;32.15;20.13;;;23.50;99.90;;;-147.18;100.00;67318.16;5042545;28;20061;-84
2022/08/20 11:05:09;;;;;;;26.60;19.60;;;23.60;99.90;;;-147.18;100.00;67318.16;5061873;28;20085;-84
2022/08/20 11:07:41;;;;;;;25.73;18.42;;;23.50;99.90;;;-147.18;100.00;67318.16;5050343;28;20021;-90
2022/08/20 11:10:10;;;;;;;30.60;21.40;;;23.60;99.90;;;-147.18;100.00;67318.16;5062641;28;20120;-83